createdAt,value
2024-01-09T00:00:18.987Z,-2.77
2024-01-09T00:02:48.711Z,-2.82
2024-01-09T00:05:16.826Z,-2.82
2024-01-09T00:07:43.385Z,-2.83
2024-01-09T00:10:10.107Z,-2.82
2024-01-09T00:12:36.695Z,-2.85
2024-01-09T00:15:05.159Z,-2.80
2024-01-09T00:17:31.705Z,-2.83
2024-01-09T00:19:58.367Z,-2.79
2024-01-09T00:22:24.928Z,-2.80
2024-01-09T00:24:51.582Z,-2.84
2024-01-09T00:27:18.231Z,-2.86
2024-01-09T00:29:44.871Z,-2.88
2024-01-09T00:32:11.422Z,-2.78
2024-01-09T00:34:38.067Z,-2.87
2024-01-09T00:37:04.508Z,-2.83
2024-01-09T00:39:30.980Z,-2.88
2024-01-09T00:41:57.482Z,-2.92
2024-01-09T00:44:23.981Z,-2.99
2024-01-09T00:46:50.468Z,-2.99
2024-01-09T00:49:17.027Z,-2.94
2024-01-09T00:51:43.569Z,-2.93
2024-01-09T00:54:10.017Z,-2.90
2024-01-09T00:56:36.528Z,-2.94
2024-01-09T00:59:03.008Z,-2.95
2024-01-09T01:01:29.687Z,-2.95
2024-01-09T01:03:57.502Z,-2.97
2024-01-09T01:06:24.277Z,-2.93
2024-01-09T01:08:51.051Z,-2.95
2024-01-09T01:11:17.717Z,-2.95
2024-01-09T01:13:44.539Z,-2.95
2024-01-09T01:16:10.985Z,-2.99
2024-01-09T01:18:37.566Z,-2.96
2024-01-09T01:21:04.113Z,-3.00
2024-01-09T01:23:31.793Z,-2.95
2024-01-09T01:25:58.353Z,-2.98
2024-01-09T01:28:24.931Z,-3.02
2024-01-09T01:30:51.717Z,-3.00
2024-01-09T01:33:18.294Z,-3.02
2024-01-09T01:35:44.881Z,-3.04
2024-01-09T01:38:11.357Z,-3.03
2024-01-09T01:40:37.955Z,-3.06
2024-01-09T01:43:06.308Z,-3.06
2024-01-09T01:45:33.083Z,-3.05
2024-01-09T01:48:01.310Z,-3.03
2024-01-09T01:50:29.760Z,-3.04
2024-01-09T01:52:56.598Z,-3.00
2024-01-09T01:55:26.634Z,-3.01
2024-01-09T01:57:55.340Z,-3.08
2024-01-09T02:00:23.010Z,-3.03
2024-01-09T02:02:53.285Z,-2.99
2024-01-09T02:05:21.935Z,-3.02
2024-01-09T02:07:52.642Z,-3.06
2024-01-09T02:10:20.732Z,-3.09
2024-01-09T02:12:47.758Z,-3.09
2024-01-09T02:15:14.666Z,-3.07
2024-01-09T02:17:41.459Z,-3.09
2024-01-09T02:20:09.564Z,-3.15
2024-01-09T02:22:36.208Z,-3.09
2024-01-09T02:25:04.613Z,-3.10
2024-01-09T02:27:49.758Z,-3.13
2024-01-09T02:30:17.832Z,-3.12
2024-01-09T02:32:45.063Z,-3.16
2024-01-09T02:35:11.976Z,-3.16
2024-01-09T02:37:41.029Z,-3.23
2024-01-09T02:40:09.174Z,-3.24
2024-01-09T02:42:35.821Z,-3.22
2024-01-09T02:45:02.323Z,-3.19
2024-01-09T02:47:28.867Z,-3.26
2024-01-09T02:49:55.361Z,-3.25
2024-01-09T02:52:21.973Z,-3.22
2024-01-09T02:54:48.533Z,-3.26
2024-01-09T02:57:16.859Z,-3.28
2024-01-09T02:59:43.368Z,-3.25
2024-01-09T03:02:09.943Z,-3.27
2024-01-09T03:04:36.844Z,-3.24
2024-01-09T03:07:03.938Z,-3.27
2024-01-09T03:09:30.577Z,-3.31
2024-01-09T03:11:57.105Z,-3.28
2024-01-09T03:14:23.853Z,-3.33
2024-01-09T03:16:50.837Z,-3.29
2024-01-09T03:19:17.673Z,-3.33
2024-01-09T03:21:44.274Z,-3.35
2024-01-09T03:24:10.688Z,-3.40
2024-01-09T03:26:37.285Z,-3.41
2024-01-09T03:29:05.357Z,-3.44
2024-01-09T03:31:32.970Z,-3.40
2024-01-09T03:33:59.577Z,-3.41
2024-01-09T03:36:26.363Z,-3.39
2024-01-09T03:38:53.816Z,-3.37
2024-01-09T03:41:20.508Z,-3.41
2024-01-09T03:43:47.114Z,-3.41
2024-01-09T03:46:13.615Z,-3.43
2024-01-09T03:48:40.234Z,-3.46
2024-01-09T03:51:07.011Z,-3.45
2024-01-09T03:53:33.544Z,-3.48
2024-01-09T03:56:00.166Z,-3.50
2024-01-09T03:58:26.977Z,-3.54
2024-01-09T04:00:53.740Z,-3.58
2024-01-09T04:03:20.336Z,-3.54
2024-01-09T04:05:47.094Z,-3.52
2024-01-09T04:08:15.445Z,-3.55
2024-01-09T04:10:42.420Z,-3.63
2024-01-09T04:13:08.967Z,-3.64
2024-01-09T04:15:35.920Z,-3.58
2024-01-09T04:18:02.955Z,-3.65
2024-01-09T04:20:29.552Z,-3.68
2024-01-09T04:22:56.042Z,-3.67
2024-01-09T04:25:22.624Z,-3.66
2024-01-09T04:27:49.110Z,-3.65
2024-01-09T04:30:15.708Z,-3.61
2024-01-09T04:32:42.346Z,-3.64
2024-01-09T04:35:09.058Z,-3.64
2024-01-09T04:37:35.599Z,-3.67
2024-01-09T04:40:02.182Z,-3.67
2024-01-09T04:42:29.025Z,-3.68
2024-01-09T04:44:55.597Z,-3.66
2024-01-09T04:47:22.350Z,-3.66
2024-01-09T04:49:49.798Z,-3.65
2024-01-09T04:52:16.384Z,-3.67
2024-01-09T04:54:42.958Z,-3.64
2024-01-09T04:57:09.776Z,-3.69
2024-01-09T04:59:36.439Z,-3.77
2024-01-09T05:02:03.356Z,-3.78
2024-01-09T05:04:30.803Z,-3.83
2024-01-09T05:06:57.621Z,-3.89
2024-01-09T05:09:24.758Z,-3.86
2024-01-09T05:11:51.475Z,-3.79
2024-01-09T05:14:18.306Z,-3.82
2024-01-09T05:16:44.991Z,-3.83
2024-01-09T05:19:11.627Z,-3.81
2024-01-09T05:21:38.186Z,-3.88
2024-01-09T05:24:04.950Z,-3.89
2024-01-09T05:26:31.421Z,-3.93
2024-01-09T05:28:57.971Z,-3.89
2024-01-09T05:31:26.542Z,-3.97
2024-01-09T05:33:53.446Z,-4.04
2024-01-09T05:36:23.726Z,-4.02
2024-01-09T05:38:53.184Z,-3.99
2024-01-09T05:41:23.593Z,-4.05
2024-01-09T05:43:50.499Z,-4.06
2024-01-09T05:46:17.107Z,-4.06
2024-01-09T05:48:44.044Z,-4.07
2024-01-09T05:51:11.314Z,-4.11
2024-01-09T05:53:38.642Z,-4.06
2024-01-09T05:56:07.203Z,-4.06
2024-01-09T05:58:34.681Z,-4.10
2024-01-09T06:01:01.844Z,-4.13
2024-01-09T06:03:28.731Z,-4.05
2024-01-09T06:05:55.582Z,-4.09
2024-01-09T06:08:22.232Z,-4.09
2024-01-09T06:10:51.525Z,-4.11
2024-01-09T06:13:18.140Z,-4.19
2024-01-09T06:15:44.923Z,-4.29
2024-01-09T06:18:11.609Z,-4.35
2024-01-09T06:20:38.409Z,-4.18
2024-01-09T06:23:05.231Z,-4.19
2024-01-09T06:25:32.296Z,-4.24
2024-01-09T06:27:58.871Z,-4.21
2024-01-09T06:30:25.538Z,-4.21
2024-01-09T06:32:52.348Z,-4.26
2024-01-09T06:35:19.044Z,-4.22
2024-01-09T06:37:45.669Z,-4.25
2024-01-09T06:40:12.356Z,-4.26
2024-01-09T06:42:40.872Z,-4.27
2024-01-09T06:45:08.148Z,-4.30
2024-01-09T06:47:36.023Z,-4.27
2024-01-09T06:50:06.201Z,-4.26
2024-01-09T06:52:34.323Z,-4.25
2024-01-09T06:55:00.920Z,-4.35
2024-01-09T06:57:27.563Z,-4.38
2024-01-09T06:59:54.262Z,-4.36
2024-01-09T07:02:22.273Z,-4.38
2024-01-09T07:04:49.286Z,-4.36
2024-01-09T07:07:16.101Z,-4.45
2024-01-09T07:09:42.697Z,-4.40
2024-01-09T07:12:17.627Z,-4.41
2024-01-09T07:14:44.833Z,-4.41
2024-01-09T07:17:11.618Z,-4.42
2024-01-09T07:19:41.364Z,-4.37
2024-01-09T07:22:08.110Z,-4.38
2024-01-09T07:24:34.814Z,-4.42
2024-01-09T07:27:01.395Z,-4.43
2024-01-09T07:29:28.062Z,-4.41
2024-01-09T07:31:54.738Z,-4.38
2024-01-09T07:34:21.426Z,-4.39
2024-01-09T07:36:48.097Z,-4.38
2024-01-09T07:39:14.825Z,-4.39
2024-01-09T07:41:41.494Z,-4.34
2024-01-09T07:44:08.259Z,-4.37
2024-01-09T07:46:34.912Z,-4.44
2024-01-09T07:49:01.697Z,-4.44
2024-01-09T07:51:28.509Z,-4.46
2024-01-09T07:53:55.644Z,-4.37
2024-01-09T07:56:23.077Z,-4.36
2024-01-09T07:58:49.814Z,-4.36
2024-01-09T08:01:16.524Z,-4.30
2024-01-09T08:03:43.663Z,-4.32
2024-01-09T08:06:18.574Z,-4.37
2024-01-09T08:08:48.861Z,-4.37
2024-01-09T08:11:35.771Z,-4.36
2024-01-09T08:14:02.294Z,-4.38
2024-01-09T08:16:29.047Z,-4.35
2024-01-09T08:18:55.766Z,-4.34
2024-01-09T08:21:22.337Z,-4.32
2024-01-09T08:23:48.999Z,-4.26
2024-01-09T08:26:15.934Z,-4.26
2024-01-09T08:28:42.547Z,-4.28
2024-01-09T08:31:09.320Z,-4.29
2024-01-09T08:33:49.093Z,-4.30
2024-01-09T08:36:16.264Z,-4.32
2024-01-09T08:38:42.828Z,-4.25
2024-01-09T08:41:11.680Z,-4.19
2024-01-09T08:43:38.319Z,-4.11
2024-01-09T08:46:05.121Z,-4.04
2024-01-09T08:48:31.754Z,-3.87
2024-01-09T08:50:59.053Z,-3.78
2024-01-09T08:53:29.584Z,-3.88
2024-01-09T08:55:56.312Z,-3.95
2024-01-09T08:58:22.900Z,-3.96
2024-01-09T09:00:50.548Z,-3.86
2024-01-09T09:03:17.310Z,-3.89
2024-01-09T09:05:44.078Z,-3.81
2024-01-09T09:08:10.717Z,-3.76
2024-01-09T09:10:37.237Z,-3.84
2024-01-09T09:13:04.860Z,-3.97
2024-01-09T09:15:31.683Z,-3.98
2024-01-09T09:17:58.445Z,-3.91
2024-01-09T09:20:25.640Z,-3.86
2024-01-09T09:22:52.287Z,-3.76
2024-01-09T09:25:19.032Z,-3.74
2024-01-09T09:27:46.894Z,-3.52
2024-01-09T09:30:14.084Z,-3.43
2024-01-09T09:32:41.150Z,-3.41
2024-01-09T09:35:08.233Z,-3.43
2024-01-09T09:37:35.801Z,-3.32
2024-01-09T09:40:02.340Z,-3.21
2024-01-09T09:42:32.795Z,-3.25
2024-01-09T09:45:04.114Z,-3.12
2024-01-09T09:47:32.627Z,-3.04
2024-01-09T09:49:59.584Z,-2.87
2024-01-09T09:52:29.118Z,-2.83
2024-01-09T09:54:58.576Z,-2.88
2024-01-09T09:57:25.922Z,-2.72
2024-01-09T09:59:52.892Z,-2.75
2024-01-09T10:02:27.715Z,-2.72
2024-01-09T10:04:57.517Z,-2.67
2024-01-09T10:07:24.270Z,-2.64
2024-01-09T10:09:53.449Z,-2.50
2024-01-09T10:12:23.771Z,-2.60
2024-01-09T10:15:10.842Z,-2.68
2024-01-09T10:17:41.286Z,-2.67
2024-01-09T10:20:10.070Z,-2.63
2024-01-09T10:22:39.650Z,-2.57
2024-01-09T10:25:07.795Z,-2.50
2024-01-09T10:27:35.590Z,-2.48
2024-01-09T10:30:02.184Z,-2.48
2024-01-09T10:32:28.929Z,-2.46
2024-01-09T10:34:55.712Z,-2.55
2024-01-09T10:37:22.343Z,-2.48
2024-01-09T10:39:51.433Z,-2.48
2024-01-09T10:42:19.000Z,-2.45
2024-01-09T10:44:48.774Z,-2.29
2024-01-09T10:47:16.266Z,-2.30
2024-01-09T10:49:44.057Z,-2.24
2024-01-09T10:52:17.622Z,-2.16
2024-01-09T10:54:46.140Z,-2.13
2024-01-09T10:57:16.530Z,-2.22
2024-01-09T10:59:45.568Z,-2.23
2024-01-09T11:02:26.606Z,-2.13
2024-01-09T11:04:53.975Z,-2.17
2024-01-09T11:07:21.883Z,-2.18
2024-01-09T11:09:49.261Z,-2.09
2024-01-09T11:12:23.445Z,-2.04
2024-01-09T11:14:54.003Z,-1.91
2024-01-09T11:17:23.576Z,-1.94
2024-01-09T11:19:50.702Z,-1.83
2024-01-09T11:22:19.076Z,-1.80
2024-01-09T11:24:54.039Z,-1.69
2024-01-09T11:27:20.706Z,-1.57
2024-01-09T11:29:54.562Z,-1.52
2024-01-09T11:32:27.310Z,-1.41
2024-01-09T11:35:16.971Z,-1.34
2024-01-09T11:37:48.462Z,-1.25
2024-01-09T11:40:17.125Z,-1.20
2024-01-09T11:42:48.305Z,-1.26
2024-01-09T11:45:21.761Z,-1.31
2024-01-09T11:47:48.684Z,-1.22
2024-01-09T11:50:15.712Z,-1.16
2024-01-09T11:52:43.951Z,-1.13
2024-01-09T11:55:11.954Z,-1.08
2024-01-09T11:57:41.008Z,-1.06
2024-01-09T12:00:09.664Z,-1.08
2024-01-09T12:02:40.312Z,-1.07
2024-01-09T12:05:08.240Z,-1.02
2024-01-09T12:07:38.150Z,-1.10
2024-01-09T12:10:16.281Z,-1.10
2024-01-09T12:12:48.276Z,-1.06
2024-01-09T12:15:20.648Z,-1.04
2024-01-09T12:17:57.922Z,-0.97
2024-01-09T12:20:25.160Z,-0.99
2024-01-09T12:22:52.124Z,-1.01
2024-01-09T12:25:19.101Z,-0.90
2024-01-09T12:27:46.033Z,-0.86
2024-01-09T12:30:14.584Z,-0.89
2024-01-09T12:32:41.655Z,-0.89
2024-01-09T12:35:08.294Z,-0.89
2024-01-09T12:37:34.844Z,-0.87
2024-01-09T12:40:02.153Z,-0.84
2024-01-09T12:42:29.562Z,-0.80
2024-01-09T12:44:56.838Z,-0.75
2024-01-09T12:47:24.491Z,-0.71
2024-01-09T12:50:02.331Z,-0.68
2024-01-09T12:52:36.610Z,-0.75
2024-01-09T12:55:05.180Z,-0.68
2024-01-09T12:57:33.208Z,-0.56
2024-01-09T13:00:00.283Z,-0.52
2024-01-09T13:02:27.496Z,-0.62
2024-01-09T13:04:54.995Z,-0.59
2024-01-09T13:07:21.824Z,-0.49
2024-01-09T13:09:49.747Z,-0.49
2024-01-09T13:12:16.400Z,-0.40
2024-01-09T13:14:43.277Z,-0.42
2024-01-09T13:17:09.797Z,-0.37
2024-01-09T13:19:36.765Z,-0.38
2024-01-09T13:24:35.465Z,-0.32
2024-01-09T13:27:05.233Z,-0.24
2024-01-09T13:32:01.908Z,-0.05
2024-01-09T13:34:29.021Z,-0.04
2024-01-09T13:36:56.794Z,-0.04
2024-01-09T13:39:24.474Z,-0.03
2024-01-09T13:41:51.667Z,-0.08
2024-01-09T13:44:18.574Z,-0.11
2024-01-09T13:46:46.141Z,-0.21
2024-01-09T13:49:13.651Z,-0.24
2024-01-09T13:51:53.384Z,-0.15
2024-01-09T13:54:57.863Z,-0.11
2024-01-09T13:57:24.774Z,0.00
2024-01-09T13:59:51.464Z,0.08
2024-01-09T14:02:18.173Z,0.06
2024-01-09T14:04:45.216Z,0.07
2024-01-09T14:07:12.039Z,-0.05
2024-01-09T14:09:38.971Z,-0.12
2024-01-09T14:12:14.984Z,-0.21
2024-01-09T14:14:41.479Z,-0.29
2024-01-09T14:17:07.984Z,-0.38
2024-01-09T14:19:35.152Z,-0.34
2024-01-09T14:22:08.695Z,-0.37
2024-01-09T14:30:07.827Z,-0.52
2024-01-09T14:32:35.953Z,-0.63
2024-01-09T14:35:02.608Z,-0.67
2024-01-09T14:37:29.124Z,-0.65
2024-01-09T14:39:55.619Z,-0.64
2024-01-09T14:42:22.634Z,-0.67
2024-01-09T14:44:55.577Z,-0.67
2024-01-09T14:47:23.757Z,-0.59
2024-01-09T14:49:50.264Z,-0.53
2024-01-09T14:52:16.780Z,-0.45
2024-01-09T14:54:43.504Z,-0.42
2024-01-09T14:57:09.956Z,-0.44
2024-01-09T14:59:36.335Z,-0.52
2024-01-09T15:02:03.538Z,-0.51
2024-01-09T15:04:30.186Z,-0.47
2024-01-09T15:07:00.352Z,-0.51
2024-01-09T15:09:31.506Z,-0.47
2024-01-09T15:11:57.964Z,-0.54
2024-01-09T15:14:24.551Z,-0.61
2024-01-09T15:16:51.084Z,-0.58
2024-01-09T15:19:17.610Z,-0.59
2024-01-09T15:21:44.255Z,-0.71
2024-01-09T15:24:10.810Z,-0.80
2024-01-09T15:26:43.862Z,-0.92
2024-01-09T15:29:10.595Z,-0.95
2024-01-09T15:31:40.776Z,-0.97
2024-01-09T15:34:08.065Z,-0.99
2024-01-09T15:36:34.774Z,-0.98
2024-01-09T15:39:01.333Z,-1.08
2024-01-09T15:41:28.153Z,-1.15
2024-01-09T15:43:55.084Z,-1.18
2024-01-09T15:46:28.812Z,-1.20
2024-01-09T15:48:55.478Z,-1.26
2024-01-09T15:51:22.264Z,-1.33
2024-01-09T15:53:50.199Z,-1.35
2024-01-09T15:56:23.915Z,-1.35
2024-01-09T15:58:50.988Z,-1.31
2024-01-09T16:01:21.756Z,-1.31
2024-01-09T16:03:49.173Z,-1.33
2024-01-09T16:06:16.474Z,-1.35
2024-01-09T16:08:44.062Z,-1.43
2024-01-09T16:11:11.009Z,-1.41
2024-01-09T16:13:41.295Z,-1.46
2024-01-09T16:16:17.296Z,-1.48
2024-01-09T16:18:44.274Z,-1.54
2024-01-09T16:21:10.757Z,-1.62
2024-01-09T16:23:41.619Z,-1.67
2024-01-09T16:26:08.692Z,-1.66
2024-01-09T16:28:36.072Z,-1.66
2024-01-09T16:31:02.673Z,-1.69
2024-01-09T16:33:30.293Z,-1.74
2024-01-09T16:35:57.002Z,-1.76
2024-01-09T16:38:23.477Z,-1.79
2024-01-09T16:40:50.125Z,-1.77
2024-01-09T16:43:17.480Z,-1.77
2024-01-09T16:45:46.684Z,-1.78
2024-01-09T16:48:16.552Z,-1.89
2024-01-09T16:50:46.510Z,-1.95
2024-01-09T16:53:13.004Z,-1.93
2024-01-09T16:55:45.869Z,-1.92
2024-01-09T16:58:12.486Z,-1.92
2024-01-09T17:00:40.473Z,-1.92
2024-01-09T17:03:07.298Z,-1.95
2024-01-09T17:05:33.821Z,-1.91
2024-01-09T17:08:00.400Z,-1.91
2024-01-09T17:10:28.043Z,-1.95
2024-01-09T17:12:54.593Z,-2.04
2024-01-09T17:15:26.540Z,-2.01
2024-01-09T17:17:53.783Z,-2.01
2024-01-09T17:20:20.807Z,-2.01
2024-01-09T17:22:47.348Z,-2.00
2024-01-09T17:25:14.839Z,-2.04
2024-01-09T17:27:42.643Z,-1.98
2024-01-09T17:30:11.836Z,-2.06
2024-01-09T17:32:39.024Z,-1.99
2024-01-09T17:35:05.565Z,-1.98
2024-01-09T17:37:32.151Z,-2.06
2024-01-09T17:39:58.799Z,-2.04
2024-01-09T17:42:27.908Z,-2.03
2024-01-09T17:44:54.373Z,-2.07
2024-01-09T17:47:21.081Z,-2.05
2024-01-09T17:49:47.666Z,-2.04
2024-01-09T17:52:14.070Z,-2.07
2024-01-09T17:54:42.669Z,-2.08
2024-01-09T17:57:10.410Z,-2.11
2024-01-09T17:59:36.832Z,-2.13
2024-01-09T18:02:03.591Z,-2.16
2024-01-09T18:04:30.450Z,-2.15
2024-01-09T18:06:57.134Z,-2.17
2024-01-09T18:09:25.206Z,-2.16
2024-01-09T18:11:52.892Z,-2.15
2024-01-09T18:14:19.601Z,-2.21
2024-01-09T18:16:47.514Z,-2.18
2024-01-09T18:19:15.029Z,-2.14
2024-01-09T18:21:42.670Z,-2.14
2024-01-09T18:24:12.581Z,-2.19
2024-01-09T18:26:52.483Z,-2.16
2024-01-09T18:29:22.141Z,-2.20
2024-01-09T18:31:49.844Z,-2.23
2024-01-09T18:34:21.911Z,-2.22
2024-01-09T18:36:52.577Z,-2.22
2024-01-09T18:39:20.330Z,-2.18
2024-01-09T18:41:57.464Z,-2.21
2024-01-09T18:44:25.682Z,-2.24
2024-01-09T18:46:52.554Z,-2.26
2024-01-09T18:49:20.078Z,-2.20
2024-01-09T18:51:46.637Z,-2.25
2024-01-09T18:54:15.284Z,-2.28
2024-01-09T18:56:43.687Z,-2.24
2024-01-09T18:59:11.765Z,-2.24
2024-01-09T19:01:41.945Z,-2.30
2024-01-09T19:04:08.661Z,-2.30
2024-01-09T19:06:35.519Z,-2.33
2024-01-09T19:09:08.441Z,-2.37
2024-01-09T19:11:35.083Z,-2.37
2024-01-09T19:14:02.242Z,-2.40
2024-01-09T19:16:29.273Z,-2.41
2024-01-09T19:18:56.162Z,-2.41
2024-01-09T19:21:22.674Z,-2.43
2024-01-09T19:23:49.079Z,-2.40
2024-01-09T19:26:15.723Z,-2.44
2024-01-09T19:28:42.446Z,-2.44
2024-01-09T19:31:09.414Z,-2.46
2024-01-09T19:33:40.488Z,-2.46
2024-01-09T19:36:14.601Z,-2.48
2024-01-09T19:38:41.848Z,-2.53
2024-01-09T19:41:16.418Z,-2.59
2024-01-09T19:43:44.827Z,-2.58
2024-01-09T19:46:11.449Z,-2.55
2024-01-09T19:48:38.059Z,-2.58
2024-01-09T19:51:09.174Z,-2.60
2024-01-09T19:53:35.766Z,-2.61
2024-01-09T19:56:02.847Z,-2.59
2024-01-09T19:58:29.390Z,-2.64
2024-01-09T20:00:56.110Z,-2.65
2024-01-09T20:03:22.607Z,-2.67
2024-01-09T20:05:49.242Z,-2.66
2024-01-09T20:08:16.074Z,-2.68
2024-01-09T20:10:42.761Z,-2.67
2024-01-09T20:13:10.012Z,-2.64
2024-01-09T20:15:38.356Z,-2.61
2024-01-09T20:18:11.173Z,-2.62
2024-01-09T20:20:37.766Z,-2.66
2024-01-09T20:23:05.275Z,-2.72
2024-01-09T20:25:31.992Z,-2.73
2024-01-09T20:27:58.616Z,-2.68
2024-01-09T20:30:26.249Z,-2.71
2024-01-09T20:32:52.994Z,-2.72
2024-01-09T20:35:20.389Z,-2.76
2024-01-09T20:37:47.352Z,-2.79
2024-01-09T20:40:14.814Z,-2.82
2024-01-09T20:42:41.240Z,-2.77
2024-01-09T20:45:08.208Z,-2.75
2024-01-09T20:47:35.911Z,-2.77
2024-01-09T20:50:02.924Z,-2.77
2024-01-09T20:52:29.633Z,-2.81
2024-01-09T20:54:57.003Z,-2.84
2024-01-09T20:57:23.715Z,-2.87
2024-01-09T20:59:50.140Z,-2.88
2024-01-09T21:02:16.960Z,-2.89
2024-01-09T21:04:45.173Z,-2.87
2024-01-09T21:07:16.765Z,-2.91
2024-01-09T21:09:43.337Z,-2.89
2024-01-09T21:12:10.971Z,-2.88
2024-01-09T21:14:37.442Z,-2.87
2024-01-09T21:17:04.417Z,-2.85
2024-01-09T21:19:31.185Z,-2.89
2024-01-09T21:21:57.889Z,-2.99
2024-01-09T21:24:24.392Z,-2.98
2024-01-09T21:26:50.853Z,-2.98
2024-01-09T21:29:17.343Z,-2.98
2024-01-09T21:31:44.030Z,-2.98
2024-01-09T21:34:10.612Z,-3.03
2024-01-09T21:36:40.922Z,-3.02
2024-01-09T21:39:10.052Z,-3.06
2024-01-09T21:41:36.753Z,-3.03
2024-01-09T21:44:03.516Z,-3.00
2024-01-09T21:46:30.197Z,-2.99
2024-01-09T21:48:59.451Z,-3.03
2024-01-09T21:54:14.317Z,-3.06
2024-01-09T21:56:40.864Z,-3.02
2024-01-09T21:59:07.538Z,-3.08
2024-01-09T22:01:34.383Z,-3.05
2024-01-09T22:04:01.254Z,-3.03
2024-01-09T22:06:29.383Z,-3.07
2024-01-09T22:08:55.923Z,-3.06
2024-01-09T22:11:22.348Z,-3.06
2024-01-09T22:13:49.042Z,-3.08
2024-01-09T22:16:20.574Z,-3.06
2024-01-09T22:18:47.241Z,-3.02
2024-01-09T22:21:13.734Z,-3.02
2024-01-09T22:23:40.180Z,-3.09
2024-01-09T22:26:06.867Z,-3.07
2024-01-09T22:28:33.382Z,-3.10
2024-01-09T22:30:59.857Z,-3.10
2024-01-09T22:33:26.387Z,-3.07
2024-01-09T22:35:52.857Z,-3.15
2024-01-09T22:38:19.986Z,-3.19
2024-01-09T22:40:47.131Z,-3.16
2024-01-09T22:43:13.742Z,-3.11
2024-01-09T22:45:40.345Z,-3.11
2024-01-09T22:48:07.359Z,-3.14
2024-01-09T22:50:35.854Z,-3.11
2024-01-09T22:53:03.611Z,-3.11
2024-01-09T22:55:30.079Z,-3.19
2024-01-09T22:57:56.569Z,-3.21
2024-01-09T23:00:23.636Z,-3.21
2024-01-09T23:02:52.082Z,-3.24
2024-01-09T23:05:19.961Z,-3.26
2024-01-09T23:07:47.642Z,-3.26
2024-01-09T23:10:14.202Z,-3.28
2024-01-09T23:12:41.030Z,-3.32
2024-01-09T23:15:09.031Z,-3.24
2024-01-09T23:17:36.928Z,-3.27
2024-01-09T23:20:05.788Z,-3.29
2024-01-09T23:22:32.651Z,-3.23
2024-01-09T23:24:59.143Z,-3.31
2024-01-09T23:27:25.530Z,-3.29
2024-01-09T23:29:52.773Z,-3.31
2024-01-09T23:32:19.345Z,-3.33
2024-01-09T23:34:53.461Z,-3.31
2024-01-09T23:37:27.720Z,-3.28
2024-01-09T23:39:54.389Z,-3.26
2024-01-09T23:42:20.804Z,-3.26
2024-01-09T23:44:47.452Z,-3.32
2024-01-09T23:47:13.961Z,-3.27
2024-01-09T23:49:40.496Z,-3.30
2024-01-09T23:52:08.348Z,-3.29
2024-01-09T23:54:34.964Z,-3.31
2024-01-09T23:57:01.381Z,-3.35
2024-01-09T23:59:27.942Z,-3.36
